createdAt,value
2023-05-12T00:01:15.330Z,100.00
2023-05-12T00:06:18.952Z,100.00
2023-05-12T00:11:23.592Z,100.00
2023-05-12T00:16:26.790Z,100.00
2023-05-12T00:21:29.880Z,100.00
2023-05-12T00:26:34.257Z,100.00
2023-05-12T00:31:37.404Z,100.00
2023-05-12T00:36:41.342Z,100.00
2023-05-12T00:41:47.908Z,100.00
2023-05-12T00:46:51.859Z,100.00
2023-05-12T00:51:55.717Z,100.00
2023-05-12T00:57:01.938Z,100.00
2023-05-12T01:02:07.271Z,100.00
2023-05-12T01:07:16.849Z,100.00
2023-05-12T01:12:21.771Z,100.00
2023-05-12T01:17:30.757Z,100.00
2023-05-12T01:22:35.291Z,100.00
2023-05-12T01:27:41.645Z,100.00
2023-05-12T01:32:45.856Z,100.00
2023-05-12T01:37:50.619Z,100.00
2023-05-12T01:42:56.300Z,100.00
2023-05-12T01:48:00.499Z,100.00
2023-05-12T01:53:03.995Z,100.00
2023-05-12T01:58:09.595Z,100.00
2023-05-12T02:03:13.130Z,100.00
2023-05-12T02:08:16.427Z,100.00
2023-05-12T02:13:21.395Z,100.00
2023-05-12T02:18:24.586Z,100.00
2023-05-12T02:23:28.401Z,100.00
2023-05-12T02:28:33.468Z,100.00
2023-05-12T02:33:36.843Z,100.00
2023-05-12T02:38:40.460Z,100.00
2023-05-12T02:43:45.534Z,100.00
2023-05-12T02:48:48.622Z,100.00
2023-05-12T02:53:52.095Z,100.00
2023-05-12T02:58:56.542Z,100.00
2023-05-12T03:03:59.753Z,100.00
2023-05-12T03:09:02.878Z,100.00
2023-05-12T03:14:07.619Z,100.00
2023-05-12T03:19:10.996Z,100.00
2023-05-12T03:24:14.169Z,100.00
2023-05-12T03:29:19.669Z,100.00
2023-05-12T03:34:22.969Z,100.00
2023-05-12T03:39:26.554Z,100.00
2023-05-12T03:44:31.659Z,100.00
2023-05-12T03:49:34.655Z,100.00
2023-05-12T03:54:38.068Z,100.00
2023-05-12T03:59:42.527Z,100.00
2023-05-12T04:04:45.517Z,100.00
2023-05-12T04:09:48.489Z,100.00
2023-05-12T04:14:52.952Z,100.00
2023-05-12T04:19:56.016Z,100.00
2023-05-12T04:24:59.330Z,100.00
2023-05-12T04:30:04.191Z,100.00
2023-05-12T04:35:11.652Z,100.00
2023-05-12T04:40:15.293Z,100.00
2023-05-12T04:45:20.385Z,100.00
2023-05-12T04:50:23.803Z,100.00
2023-05-12T04:55:27.018Z,100.00
2023-05-12T05:00:31.624Z,100.00
2023-05-12T05:05:34.676Z,100.00
2023-05-12T05:10:38.395Z,100.00
2023-05-12T05:15:50.932Z,100.00
2023-05-12T05:20:58.549Z,100.00
2023-05-12T05:26:02.532Z,100.00
2023-05-12T05:31:07.669Z,100.00
2023-05-12T05:36:11.575Z,100.00
2023-05-12T05:41:14.808Z,100.00
2023-05-12T05:46:19.411Z,100.00
2023-05-12T05:51:22.485Z,100.00
2023-05-12T05:56:25.604Z,100.00
2023-05-12T06:01:31.217Z,100.00
2023-05-12T06:06:34.705Z,100.00
2023-05-12T06:11:38.120Z,100.00
2023-05-12T06:16:42.742Z,100.00
2023-05-12T06:21:45.642Z,100.00
2023-05-12T06:26:49.115Z,100.00
2023-05-12T06:31:53.876Z,100.00
2023-05-12T06:36:57.118Z,100.00
2023-05-12T06:42:00.778Z,100.00
2023-05-12T06:47:14.208Z,100.00
2023-05-12T06:52:17.521Z,100.00
2023-05-12T06:57:20.737Z,100.00
2023-05-12T07:02:25.090Z,100.00
2023-05-12T07:07:28.180Z,100.00
2023-05-12T07:12:32.231Z,100.00
2023-05-12T07:17:36.759Z,100.00
2023-05-12T07:22:39.867Z,100.00
2023-05-12T07:27:42.969Z,100.00
2023-05-12T07:32:47.466Z,100.00
2023-05-12T07:37:51.068Z,100.00
2023-05-12T07:42:54.149Z,100.00
2023-05-12T07:47:58.601Z,100.00
2023-05-12T07:53:01.853Z,100.00
2023-05-12T07:58:05.027Z,100.00
2023-05-12T08:03:09.494Z,100.00
2023-05-12T08:08:16.785Z,100.00
2023-05-12T08:13:19.880Z,100.00
2023-05-12T08:18:24.362Z,100.00
2023-05-12T08:23:27.477Z,100.00
2023-05-12T08:28:31.178Z,100.00
2023-05-12T08:33:37.028Z,100.00
2023-05-12T08:38:40.471Z,100.00
2023-05-12T08:43:45.889Z,96.58
2023-05-12T08:48:53.397Z,98.73
2023-05-12T08:53:58.091Z,95.90
2023-05-12T08:59:02.430Z,97.02
2023-05-12T09:04:07.500Z,95.38
2023-05-12T09:09:11.014Z,93.46
2023-05-12T09:14:19.157Z,93.73
2023-05-12T09:19:24.102Z,89.87
2023-05-12T09:24:36.656Z,88.58
2023-05-12T09:29:59.252Z,85.68
2023-05-12T09:35:11.122Z,85.29
2023-05-12T09:40:14.869Z,88.50
2023-05-12T09:45:18.201Z,86.01
2023-05-12T09:50:23.812Z,82.31
2023-05-12T09:55:27.225Z,80.14
2023-05-12T10:00:41.316Z,80.13
2023-05-12T10:05:54.558Z,82.16
2023-05-12T10:11:03.584Z,78.88
2023-05-12T10:16:11.459Z,78.57
2023-05-12T10:21:19.638Z,77.46
2023-05-12T10:26:23.585Z,79.00
2023-05-12T10:31:29.239Z,74.79
2023-05-12T10:36:45.073Z,75.11
2023-05-12T10:41:48.197Z,71.87
2023-05-12T10:46:58.695Z,74.95
2023-05-12T10:52:03.225Z,70.33
2023-05-12T10:57:17.876Z,72.02
2023-05-12T11:02:29.162Z,71.46
2023-05-12T11:07:36.701Z,73.37
2023-05-12T11:12:40.635Z,69.78
2023-05-12T11:17:43.743Z,67.20
2023-05-12T11:22:48.571Z,71.87
2023-05-12T11:27:51.897Z,71.77
2023-05-12T11:33:04.440Z,68.71
2023-05-12T11:38:18.752Z,66.59
2023-05-12T11:43:22.729Z,70.36
2023-05-12T11:48:34.783Z,67.70
2023-05-12T11:53:42.818Z,64.00
2023-05-12T11:58:54.902Z,66.70
2023-05-12T12:03:58.194Z,66.27
2023-05-12T12:09:02.864Z,69.47
2023-05-12T12:14:06.193Z,68.60
2023-05-12T12:19:09.292Z,70.58
2023-05-12T12:24:14.236Z,71.40
2023-05-12T12:29:17.800Z,69.93
2023-05-12T12:34:20.887Z,67.88
2023-05-12T12:39:25.736Z,71.22
2023-05-12T12:44:29.158Z,66.61
2023-05-12T12:49:32.425Z,73.68
2023-05-12T12:54:37.520Z,69.69
2023-05-12T12:59:40.773Z,69.81
2023-05-12T13:04:43.896Z,73.39
2023-05-12T13:09:48.552Z,67.17
2023-05-12T13:14:51.557Z,67.18
2023-05-12T13:19:54.694Z,68.34
2023-05-12T13:24:59.392Z,68.55
2023-05-12T13:30:04.446Z,66.01
2023-05-12T13:35:09.011Z,70.82
2023-05-12T13:40:14.570Z,61.32
2023-05-12T13:45:19.420Z,70.06
2023-05-12T13:50:23.059Z,72.05
2023-05-12T13:55:27.654Z,74.85
2023-05-12T14:00:31.256Z,72.39
2023-05-12T14:05:34.850Z,68.37
2023-05-12T14:10:40.307Z,66.86
2023-05-12T14:15:49.304Z,68.41
2023-05-12T14:20:53.399Z,64.83
2023-05-12T14:25:58.169Z,66.77
2023-05-12T14:31:02.802Z,64.64
2023-05-12T14:36:08.430Z,66.76
2023-05-12T14:41:13.730Z,58.43
2023-05-12T14:46:16.954Z,66.74
2023-05-12T14:51:19.997Z,66.40
2023-05-12T14:56:25.334Z,68.49
2023-05-12T15:01:29.565Z,68.46
2023-05-12T15:06:34.069Z,67.17
2023-05-12T15:11:38.372Z,64.43
2023-05-12T15:16:41.776Z,63.91
2023-05-12T15:21:45.030Z,67.50
2023-05-12T15:26:49.872Z,69.15
2023-05-12T15:31:53.079Z,68.30
2023-05-12T15:36:56.287Z,66.62
2023-05-12T15:42:01.237Z,61.63
2023-05-12T15:47:05.200Z,65.60
2023-05-12T15:52:11.521Z,68.70
2023-05-12T15:57:16.936Z,67.19
2023-05-12T16:02:20.182Z,71.60
2023-05-12T16:07:23.585Z,63.81
2023-05-12T16:12:33.478Z,64.29
2023-05-12T16:17:37.967Z,66.34
2023-05-12T16:22:41.799Z,68.11
2023-05-12T16:27:46.352Z,58.48
2023-05-12T16:32:49.742Z,68.40
2023-05-12T16:37:53.812Z,63.38
2023-05-12T16:42:58.287Z,52.57
2023-05-12T16:48:02.741Z,59.24
2023-05-12T16:53:06.342Z,59.28
2023-05-12T16:58:11.155Z,86.00
2023-05-12T17:03:14.301Z,85.00
2023-05-12T17:08:19.002Z,92.49
2023-05-12T17:13:23.774Z,91.55
2023-05-12T17:18:27.144Z,91.90
2023-05-12T17:23:30.398Z,91.84
2023-05-12T17:28:35.219Z,91.05
2023-05-12T17:33:38.393Z,90.14
2023-05-12T17:38:42.105Z,89.56
2023-05-12T17:43:46.608Z,92.77
2023-05-12T17:48:49.804Z,88.51
2023-05-12T17:53:52.912Z,85.62
2023-05-12T17:58:57.436Z,86.72
2023-05-12T18:04:00.740Z,87.13
2023-05-12T18:09:03.911Z,91.15
2023-05-12T18:14:08.687Z,88.13
2023-05-12T18:19:11.859Z,87.92
2023-05-12T18:24:15.287Z,85.84
2023-05-12T18:29:19.687Z,85.02
2023-05-12T18:34:22.720Z,86.46
2023-05-12T18:39:26.154Z,86.31
2023-05-12T18:44:30.566Z,87.58
2023-05-12T18:49:33.631Z,88.44
2023-05-12T18:54:37.052Z,89.27
2023-05-12T18:59:41.918Z,89.46
2023-05-12T19:04:45.166Z,89.27
2023-05-12T19:09:48.431Z,91.05
2023-05-12T19:14:53.262Z,92.38
2023-05-12T19:19:57.684Z,94.71
2023-05-12T19:25:00.911Z,95.57
2023-05-12T19:30:06.754Z,96.43
2023-05-12T19:35:11.778Z,95.03
2023-05-12T19:40:15.011Z,95.84
2023-05-12T19:45:19.539Z,96.82
2023-05-12T19:50:22.876Z,96.72
2023-05-12T19:55:26.253Z,95.44
2023-05-12T20:00:30.675Z,95.47
2023-05-12T20:05:36.634Z,95.18
2023-05-12T20:10:41.011Z,95.91
2023-05-12T20:15:45.940Z,95.74
2023-05-12T20:20:49.101Z,96.81
2023-05-12T20:25:53.333Z,96.44
2023-05-12T20:30:57.837Z,97.51
2023-05-12T20:36:01.002Z,98.94
2023-05-12T20:41:07.464Z,100.00
2023-05-12T20:46:12.540Z,100.00
2023-05-12T20:51:15.832Z,100.00
2023-05-12T20:56:18.953Z,100.00
2023-05-12T21:01:23.437Z,100.00
2023-05-12T21:06:26.766Z,100.00
2023-05-12T21:11:29.747Z,100.00
2023-05-12T21:16:34.265Z,100.00
2023-05-12T21:21:37.410Z,100.00
2023-05-12T21:26:40.520Z,100.00
2023-05-12T21:31:45.189Z,100.00
2023-05-12T21:36:48.775Z,100.00
2023-05-12T21:41:51.904Z,100.00
2023-05-12T21:46:58.610Z,100.00
2023-05-12T21:52:01.730Z,100.00
2023-05-12T21:57:04.988Z,100.00
2023-05-12T22:02:09.549Z,100.00
2023-05-12T22:07:12.977Z,100.00
2023-05-12T22:12:18.482Z,100.00
2023-05-12T22:17:22.843Z,100.00
2023-05-12T22:22:25.841Z,100.00
2023-05-12T22:27:28.833Z,100.00
2023-05-12T22:32:33.518Z,100.00
2023-05-12T22:37:36.751Z,100.00
2023-05-12T22:42:40.289Z,100.00
2023-05-12T22:47:44.748Z,100.00
2023-05-12T22:52:48.008Z,100.00
2023-05-12T22:57:51.325Z,100.00
2023-05-12T23:02:55.822Z,100.00
2023-05-12T23:07:58.826Z,100.00
2023-05-12T23:13:02.058Z,100.00
2023-05-12T23:18:06.440Z,100.00
2023-05-12T23:23:09.586Z,100.00
2023-05-12T23:28:12.553Z,100.00
2023-05-12T23:33:17.183Z,100.00
2023-05-12T23:38:20.232Z,100.00
2023-05-12T23:43:23.254Z,99.71
2023-05-12T23:48:28.561Z,98.83
2023-05-12T23:53:31.677Z,98.82
2023-05-12T23:58:35.563Z,99.18
